Архив погоды в Дербенте

Метеограмма Дербент
Четверг, 14 Декабря
Время местн. Темп Ветер Видим Явления Облачность нижн/средн/верх Атм. давл. Влжн Точка росы ВНГО R Сост. почвы Tg s
Напр Скр Прв ур.ст ур.м изм
09:00 +7.2° Ю 2 - 4 км слабый ливневый дождь облачно 771 769 +0.7 91% +5.8° 600 м - - - -
06:00 +7.4° Ю 2 - 10 км - облачно 770 769 +0.1 88% +5.6° 1 км - Влажная (без луж) - -
03:00 +7.3° Ю 3 - 10 км - облачно 770 769 -0.4 89% +5.6° 1 км - - - -
00:00 +7.5° Ю 3 - 10 км - облачно 771 769 -0.6 83% +4.8° 1 км - - - -
Среда, 13 Декабря
Время местн. Темп Ветер Видим Явления Облачность нижн/средн/верх Атм. давл. Влжн Точка росы ВНГО R Сост. почвы Tg s
Напр Скр Прв ур.ст ур.м изм
21:00 +8.1° Ю,Ю-В 6 - 10 км - облачно 771 770 -0.2 79% +4.7° 1 км - - - -
18:00 +8.7° Ю,Ю-В 4 - 10 км - преимущественно облачно 771 770 +0.5 80% +5.4° 1 км - - - -
15:00 +8.9° Ю 4 - 20 км - облачно 771 769 -0.8 77% +5.1° 1 км - - - -
12:00 +8.9° Ю,Ю-В 5 - 20 км - облачно 772 770 -1.3 81% +5.8° 1 км - - - -
09:00 +7.6° Ю 3 - 20 км - облачно 773 771 +0.7 86% +5.4° 1 км - - - -
06:00 +8.1° Ю,Ю-В 4 - 10 км - облачно с прояснениями 772 771 -0.3 80% +4.9° 1 км - Влажная (без луж) - -
03:00 +8.2° Ю 3 - 10 км - преимущественно облачно 773 771 -0.5 80% +5° 1 км - - - -
00:00 +8.3° Ю 2 - 10 км - ясно 773 771 -0.7 77% +4.6° более 2.5 км - - - -
Вторник, 12 Декабря
Время местн. Темп Ветер Видим Явления Облачность нижн/средн/верх Атм. давл. Влжн Точка росы ВНГО R Сост. почвы Tg s
Напр Скр Прв ур.ст ур.м изм
21:00 +8.6° Ю 2 - 10 км - преимущественно облачно 774 772 0 79% +5.2° 1 км - - - -
18:00 +8.6° Ю 2 - 10 км - облачно с прояснениями 774 772 +0.9 81% +5.5° 1 км 0 - - -
15:00 +9.1° Ю-В 2 - 20 км - облачно 773 771 -0.2 77% +5.3° 1 км - - - -
12:00 +9.7° В,Ю-В 4 - 20 км - облачно с прояснениями 773 771 -1.6 70% +4.6° более 2.5 км - - - -
09:00 +8.7° С 1 - 20 км - облачно с прояснениями 775 773 +0.9 74% +4.3° - - - - -
06:00 +6.6° Ю,Ю-З 1 - 10 км - облачно с прояснениями 774 772 -0.5 77% +2.8° более 2.5 км 0 Влажная (без луж) +2° -
03:00 +6.8° Ю-З 1 - 10 км - преимущественно облачно 774 772 -0.4 75% +2.6° 1 км - - - -
00:00 +8° З,С-З 2 - 10 км - преимущественно облачно 774 773 -0.5 67% +2.2° 1 км - - - -
Понедельник, 11 Декабря
Время местн. Темп Ветер Видим Явления Облачность нижн/средн/верх Атм. давл. Влжн Точка росы ВНГО R Сост. почвы Tg s
Напр Скр Прв ур.ст ур.м изм
21:00 +8.5° З,С-З 2 - 10 км - преимущественно облачно 775 773 +1 66% +2.6° 1 км - - - -
18:00 +8.8° С-З 2 - 10 км - преимущественно облачно 774 772 +2.3 70% +3.7° 600 м 0 - - -
15:00 +9.6° С 3 - 20 км - облачно с прояснениями 772 770 +2.3 67% +3.8° 600 м - - - -
12:00 +9.1° С-З 5 14 20 км - преимущественно облачно 769 768 +2.9 67% +3.4° 600 м - - - -
09:00 +6.5° З,С-З 5 - 20 км - облачно с прояснениями 767 765 +1.9 81% +3.4° 1 км - - - -
06:00 +3.7° З 1 - 10 км - ясно 765 763 -0.7 90% +2.2° более 2.5 км 0 Влажная (без луж) -